Time;durP1;ratioP1;P1;durP2;ratioP2;P2;SDS_P1;SDS_P2;PMS_P1;PMS_P2;Temp;Humidity;BMP_temperature;BMP_pressure;BME280_temperature;BME280_humidity;BME280_pressure;Samples;Min_cycle;Max_cycle;Signal;HPM_P1;HPM_P2
2023/07/19 00:02:04;;;;;;;;;;;12.00;54.60;;;;;;5071788;28;19918;-70
2023/07/19 00:04:31;;;;;;;;;;;12.10;54.70;;;;;;5055673;28;19919;-70
2023/07/19 00:06:57;;;;;;;;;;;12.10;54.40;;;;;;5052829;28;19909;-70
2023/07/19 00:09:24;;;;;;;;;;;12.10;54.60;;;;;;5052634;28;20000;-70
2023/07/19 00:11:51;;;;;;;;;;;12.10;54.70;;;;;;5052326;28;20004;-70
2023/07/19 00:14:18;;;;;;;;;;;12.20;54.70;;;;;;5052777;28;20000;-70
2023/07/19 00:16:45;;;;;;;;;;;12.20;54.20;;;;;;5052681;28;19983;-70
2023/07/19 00:19:12;;;;;;;;;;;12.20;54.60;;;;;;5052773;28;19955;-72
2023/07/19 00:21:38;;;;;;;;;;;12.30;54.30;;;;;;5052355;28;19909;-71
2023/07/19 00:24:05;;;;;;;;;;;12.30;53.70;;;;;;5052283;28;20378;-69
2023/07/19 00:26:32;;;;;;;;;;;12.30;52.70;;;;;;5052525;28;19913;-70
2023/07/19 00:28:59;;;;;;;;;;;12.40;52.30;;;;;;5052603;28;19909;-70
2023/07/19 00:31:25;;;;;;;;;;;12.40;52.50;;;;;;5067754;28;19957;-70
2023/07/19 00:33:52;;;;;;;;;;;12.50;51.90;;;;;;5034471;28;19909;-70
2023/07/19 00:36:19;;;;;;;;;;;12.50;51.70;;;;;;5052318;28;20309;-70
2023/07/19 00:38:46;;;;;;;;;;;12.50;51.80;;;;;;5051029;28;19979;-70
2023/07/19 00:41:13;;;;;;;;;;;12.60;51.10;;;;;;5052423;28;19909;-70
2023/07/19 00:43:40;;;;;;;;;;;12.70;50.90;;;;;;5052191;28;19966;-70
2023/07/19 00:46:07;;;;;;;;;;;12.70;50.70;;;;;;5052321;28;19919;-70
2023/07/19 00:48:33;;;;;;;;;;;12.70;51.50;;;;;;5034590;28;20278;-70
2023/07/19 00:51:00;;;;;;;;;;;12.70;50.90;;;;;;5034501;28;19924;-70
2023/07/19 00:53:27;;;;;;;;;;;12.70;50.40;;;;;;5034451;28;19924;-70
2023/07/19 00:55:54;;;;;;;;;;;12.80;50.70;;;;;;5052189;28;19909;-70
2023/07/19 00:58:23;;;;;;;;;;;12.80;50.30;;;;;;5034219;28;19916;-70
2023/07/19 01:00:50;;;;;;;;;;;12.80;49.30;;;;;;5052044;28;19908;-69
2023/07/19 01:03:17;;;;;;;;;;;12.80;49.70;;;;;;5052026;28;20287;-70
2023/07/19 01:05:44;;;;;;;;;;;12.90;49.90;;;;;;5052016;28;19923;-70
2023/07/19 01:08:11;;;;;;;;;;;12.90;49.80;;;;;;5052287;28;19916;-70
2023/07/19 01:10:37;;;;;;;;;;;12.90;49.40;;;;;;5033855;28;19943;-70
2023/07/19 01:13:04;;;;;;;;;;;13.00;49.30;;;;;;5053517;28;19909;-70
2023/07/19 01:15:31;;;;;;;;;;;13.00;49.00;;;;;;5055908;28;19971;-69
2023/07/19 01:17:58;;;;;;;;;;;13.00;48.80;;;;;;5038156;28;19916;-70
2023/07/19 01:20:25;;;;;;;;;;;13.00;48.20;;;;;;5038192;28;20310;-70
2023/07/19 01:22:51;;;;;;;;;;;13.10;47.20;;;;;;5055945;28;20002;-70
2023/07/19 01:25:18;;;;;;;;;;;13.20;47.60;;;;;;5055997;28;20322;-71
2023/07/19 01:27:45;;;;;;;;;;;13.20;47.80;;;;;;5055720;28;19913;-70
2023/07/19 01:30:12;;;;;;;;;;;13.20;48.10;;;;;;5055654;28;19909;-71
2023/07/19 01:32:39;;;;;;;;;;;13.20;46.90;;;;;;5038070;28;19919;-71
2023/07/19 01:35:06;;;;;;;;;;;13.20;47.90;;;;;;5055680;28;19920;-71
2023/07/19 01:37:32;;;;;;;;;;;13.30;47.70;;;;;;5037572;28;20015;-70
2023/07/19 01:40:00;;;;;;;;;;;13.30;48.00;;;;;;5056217;28;19975;-71
2023/07/19 01:42:27;;;;;;;;;;;13.30;46.30;;;;;;5055317;28;19921;-71
2023/07/19 01:44:54;;;;;;;;;;;13.50;45.20;;;;;;5055441;28;19909;-70
2023/07/19 01:47:21;;;;;;;;;;;13.50;43.60;;;;;;5055472;28;19913;-70
2023/07/19 01:49:47;;;;;;;;;;;13.50;43.80;;;;;;5055268;28;20015;-70
2023/07/19 01:52:15;;;;;;;;;;;13.60;45.20;;;;;;5058466;28;19928;-71
2023/07/19 01:54:42;;;;;;;;;;;13.70;43.90;;;;;;5055035;28;20375;-70
2023/07/19 01:57:09;;;;;;;;;;;13.70;44.50;;;;;;5055197;28;19916;-70
2023/07/19 01:59:35;;;;;;;;;;;13.70;44.50;;;;;;5055049;28;19999;-71
2023/07/19 02:02:02;;;;;;;;;;;13.70;44.10;;;;;;5055172;28;19953;-70
2023/07/19 02:04:29;;;;;;;;;;;13.70;43.80;;;;;;5070661;28;20244;-70
2023/07/19 02:06:56;;;;;;;;;;;13.60;42.10;;;;;;5070332;28;19932;-70
2023/07/19 02:09:23;;;;;;;;;;;13.70;42.90;;;;;;5054695;28;19916;-71
2023/07/19 02:11:49;;;;;;;;;;;13.60;43.50;;;;;;5054794;28;19960;-70
2023/07/19 02:14:18;;;;;;;;;;;13.60;44.80;;;;;;5054646;28;20363;-70
2023/07/19 02:16:45;;;;;;;;;;;13.70;43.10;;;;;;5054652;28;20340;-70
2023/07/19 02:19:12;;;;;;;;;;;13.70;43.20;;;;;;5054763;28;19928;-70
2023/07/19 02:21:38;;;;;;;;;;;13.80;42.80;;;;;;5054506;28;19955;-70
2023/07/19 02:24:05;;;;;;;;;;;13.80;43.00;;;;;;5054331;28;19936;-70
2023/07/19 02:26:32;;;;;;;;;;;13.90;42.50;;;;;;5054560;28;19920;-70
2023/07/19 02:28:59;;;;;;;;;;;13.80;43.50;;;;;;5054390;28;19916;-71
2023/07/19 02:31:25;;;;;;;;;;;13.80;43.30;;;;;;5054193;28;19929;-70
2023/07/19 02:33:52;;;;;;;;;;;13.80;43.10;;;;;;5053531;28;19909;-71
2023/07/19 02:36:19;;;;;;;;;;;13.80;44.00;;;;;;5061389;28;19912;-70
2023/07/19 02:38:46;;;;;;;;;;;13.80;43.40;;;;;;5073911;28;20378;-70
2023/07/19 02:41:12;;;;;;;;;;;13.90;43.70;;;;;;5077911;28;20371;-71
2023/07/19 02:43:39;;;;;;;;;;;14.00;43.00;;;;;;5053902;28;19921;-71
2023/07/19 02:46:06;;;;;;;;;;;14.00;43.70;;;;;;5053267;28;19959;-71
2023/07/19 02:48:32;;;;;;;;;;;14.00;43.90;;;;;;5053888;28;19984;-70
2023/07/19 02:50:59;;;;;;;;;;;14.00;43.30;;;;;;5053696;28;19917;-70
2023/07/19 02:53:26;;;;;;;;;;;14.00;43.70;;;;;;5065424;28;20260;-70
2023/07/19 02:55:53;;;;;;;;;;;14.00;42.60;;;;;;5073543;28;19916;-71
2023/07/19 02:58:20;;;;;;;;;;;14.00;43.80;;;;;;5073875;28;19928;-70
2023/07/19 03:00:46;;;;;;;;;;;14.00;43.30;;;;;;5073471;28;19946;-70
2023/07/19 03:03:13;;;;;;;;;;;14.10;43.80;;;;;;5073281;28;19948;-70
2023/07/19 03:05:44;;;;;;;;;;;14.10;43.90;;;;;;5073727;28;19993;-71
2023/07/19 03:08:11;;;;;;;;;;;14.10;43.10;;;;;;5073540;28;19958;-70
2023/07/19 03:10:38;;;;;;;;;;;14.00;44.00;;;;;;5073107;28;19926;-70
2023/07/19 03:13:05;;;;;;;;;;;14.00;43.60;;;;;;5073235;28;19915;-71
2023/07/19 03:15:32;;;;;;;;;;;14.10;44.30;;;;;;5073258;28;19916;-70
2023/07/19 03:18:05;;;;;;;;;;;14.10;43.50;;;;;;5072722;28;19952;-71
2023/07/19 03:20:31;;;;;;;;;;;14.10;43.60;;;;;;5062904;28;20418;-71
2023/07/19 03:23:00;;;;;;;;;;;14.10;45.40;;;;;;5073240;28;19980;-70
2023/07/19 03:25:28;;;;;;;;;;;14.00;44.20;;;;;;5073006;28;20442;-70
2023/07/19 03:27:55;;;;;;;;;;;14.00;44.40;;;;;;5072768;28;19908;-71
2023/07/19 03:30:22;;;;;;;;;;;14.00;44.90;;;;;;5081676;28;20019;-70
2023/07/19 03:32:48;;;;;;;;;;;14.00;44.60;;;;;;5070425;28;19909;-70
2023/07/19 03:35:15;;;;;;;;;;;14.00;44.60;;;;;;5071966;28;19908;-71
2023/07/19 03:37:45;;;;;;;;;;;14.00;45.20;;;;;;5054942;28;19958;-70
2023/07/19 03:40:12;;;;;;;;;;;14.00;45.40;;;;;;5061855;28;20016;-70
2023/07/19 03:42:39;;;;;;;;;;;14.00;46.00;;;;;;5052687;28;20342;-70
2023/07/19 03:45:06;;;;;;;;;;;14.10;46.90;;;;;;5059698;28;20003;-70
2023/07/19 03:47:33;;;;;;;;;;;14.10;46.50;;;;;;5072640;28;19995;-71
2023/07/19 03:50:00;;;;;;;;;;;14.10;47.70;;;;;;5072402;28;19908;-70
2023/07/19 03:52:27;;;;;;;;;;;14.10;47.20;;;;;;5072369;28;19959;-71
2023/07/19 03:54:54;;;;;;;;;;;14.10;47.70;;;;;;5054234;28;19915;-71
2023/07/19 03:57:21;;;;;;;;;;;14.10;47.70;;;;;;5052458;28;19931;-70
2023/07/19 03:59:48;;;;;;;;;;;14.10;47.40;;;;;;5056771;28;20286;-70
2023/07/19 04:02:15;;;;;;;;;;;14.00;47.60;;;;;;5067635;28;19969;-69
2023/07/19 04:04:41;;;;;;;;;;;14.00;49.10;;;;;;5072075;28;20014;-70
2023/07/19 04:07:08;;;;;;;;;;;13.90;48.30;;;;;;5072181;28;19987;-70
2023/07/19 04:09:35;;;;;;;;;;;14.00;47.90;;;;;;5072316;28;20389;-69
2023/07/19 04:12:01;;;;;;;;;;;14.00;48.00;;;;;;5071920;28;19923;-70
2023/07/19 04:14:28;;;;;;;;;;;14.00;47.60;;;;;;5072164;28;19909;-70
2023/07/19 04:16:55;;;;;;;;;;;13.90;47.50;;;;;;5072247;28;19955;-69
2023/07/19 04:19:22;;;;;;;;;;;14.00;48.70;;;;;;5072343;28;19962;-70
2023/07/19 04:21:48;;;;;;;;;;;13.90;48.80;;;;;;5071807;28;19994;-71
2023/07/19 04:24:15;;;;;;;;;;;13.90;48.70;;;;;;5072267;28;19915;-70
2023/07/19 04:26:42;;;;;;;;;;;13.90;49.10;;;;;;5072239;28;19954;-70
2023/07/19 04:29:09;;;;;;;;;;;13.90;49.30;;;;;;5066373;28;20445;-70
2023/07/19 04:31:36;;;;;;;;;;;13.90;49.60;;;;;;5051897;28;19971;-70
2023/07/19 04:34:02;;;;;;;;;;;13.90;49.00;;;;;;5051517;28;20329;-70
2023/07/19 04:36:30;;;;;;;;;;;13.90;48.80;;;;;;5056737;28;19917;-70
2023/07/19 04:38:57;;;;;;;;;;;13.90;49.50;;;;;;5069329;28;20008;-73
2023/07/19 04:41:24;;;;;;;;;;;13.90;50.00;;;;;;5069234;28;19935;-72
2023/07/19 04:43:51;;;;;;;;;;;13.90;49.50;;;;;;5057319;28;19917;-73
2023/07/19 04:46:18;;;;;;;;;;;13.90;50.30;;;;;;5049300;28;19917;-71
2023/07/19 04:48:45;;;;;;;;;;;13.90;50.80;;;;;;5053046;28;19913;-71
2023/07/19 04:51:11;;;;;;;;;;;13.90;48.80;;;;;;5053086;28;20323;-70
2023/07/19 04:53:38;;;;;;;;;;;13.90;49.10;;;;;;5053412;28;19916;-71
2023/07/19 04:56:05;;;;;;;;;;;13.90;49.00;;;;;;5051652;28;20295;-71
2023/07/19 04:58:32;;;;;;;;;;;13.90;48.60;;;;;;5053720;28;19923;-70
2023/07/19 05:01:08;;;;;;;;;;;14.00;49.60;;;;;;5053253;28;19920;-70
2023/07/19 05:03:35;;;;;;;;;;;14.00;50.00;;;;;;5053120;28;20023;-71
2023/07/19 05:06:02;;;;;;;;;;;14.00;50.90;;;;;;5035551;28;19952;-71
2023/07/19 05:08:29;;;;;;;;;;;14.00;52.20;;;;;;5053452;28;19962;-70
2023/07/19 05:10:55;;;;;;;;;;;14.00;51.20;;;;;;5035273;28;19929;-71
2023/07/19 05:13:22;;;;;;;;;;;14.00;51.20;;;;;;5052623;28;19913;-70
2023/07/19 05:15:49;;;;;;;;;;;14.00;51.40;;;;;;5053168;28;19913;-70
2023/07/19 05:18:16;;;;;;;;;;;14.00;51.40;;;;;;5053103;28;19913;-70
2023/07/19 05:20:42;;;;;;;;;;;14.00;51.40;;;;;;5052942;28;19947;-69
2023/07/19 05:23:10;;;;;;;;;;;14.00;51.10;;;;;;5052531;28;20280;-70
2023/07/19 05:25:37;;;;;;;;;;;14.00;52.00;;;;;;5052839;28;19920;-70
2023/07/19 05:28:03;;;;;;;;;;;14.00;52.10;;;;;;5044615;28;19917;-69
2023/07/19 05:30:30;;;;;;;;;;;14.00;52.10;;;;;;5033029;28;20346;-70
2023/07/19 05:32:57;;;;;;;;;;;14.00;52.00;;;;;;5063439;28;19913;-70
2023/07/19 05:35:23;;;;;;;;;;;14.00;51.70;;;;;;5063370;28;20050;-69
2023/07/19 05:37:50;;;;;;;;;;;14.00;51.40;;;;;;5037441;28;19915;-70
2023/07/19 05:40:17;;;;;;;;;;;14.00;52.20;;;;;;5055088;28;19944;-69
2023/07/19 05:42:44;;;;;;;;;;;14.00;52.10;;;;;;5066933;28;19927;-70
2023/07/19 05:45:10;;;;;;;;;;;13.90;52.00;;;;;;5075033;28;19915;-70
2023/07/19 05:47:37;;;;;;;;;;;13.90;52.00;;;;;;5075151;28;20010;-69
2023/07/19 05:50:04;;;;;;;;;;;13.90;52.30;;;;;;5074989;28;20011;-70
2023/07/19 05:52:31;;;;;;;;;;;13.90;52.70;;;;;;5075033;28;19915;-70
2023/07/19 05:54:58;;;;;;;;;;;13.90;52.30;;;;;;5075161;28;19908;-69
2023/07/19 05:57:25;;;;;;;;;;;14.00;52.10;;;;;;5075188;28;19991;-69
2023/07/19 05:59:51;;;;;;;;;;;13.90;52.40;;;;;;5074507;28;20262;-69
2023/07/19 06:02:18;;;;;;;;;;;13.90;51.90;;;;;;5074835;28;19943;-69
2023/07/19 06:04:46;;;;;;;;;;;13.90;53.10;;;;;;5075411;28;19951;-70
2023/07/19 06:07:15;;;;;;;;;;;13.90;53.50;;;;;;5075002;28;20332;-70
2023/07/19 06:09:42;;;;;;;;;;;13.80;54.00;;;;;;5075053;28;20308;-69
2023/07/19 06:12:09;;;;;;;;;;;13.90;53.70;;;;;;5074543;28;19916;-69
2023/07/19 06:14:35;;;;;;;;;;;13.80;54.20;;;;;;5074573;28;19995;-70
2023/07/19 06:17:02;;;;;;;;;;;13.80;53.80;;;;;;5073993;28;20394;-69
2023/07/19 06:19:29;;;;;;;;;;;13.80;53.50;;;;;;5073325;28;19966;-69
2023/07/19 06:21:56;;;;;;;;;;;13.80;53.60;;;;;;5067832;28;19921;-70
2023/07/19 06:24:23;;;;;;;;;;;13.80;54.20;;;;;;5054293;28;19913;-69
2023/07/19 06:26:50;;;;;;;;;;;13.80;54.10;;;;;;5054451;28;19959;-69
2023/07/19 06:29:17;;;;;;;;;;;13.70;54.70;;;;;;5073816;28;20003;-70
2023/07/19 06:31:44;;;;;;;;;;;13.70;54.30;;;;;;5056390;28;20003;-69
2023/07/19 06:34:10;;;;;;;;;;;13.70;55.20;;;;;;5073770;28;19919;-70
2023/07/19 06:36:37;;;;;;;;;;;13.70;54.80;;;;;;5056415;28;20312;-70
2023/07/19 06:39:04;;;;;;;;;;;13.70;54.10;;;;;;5074555;28;20402;-69
2023/07/19 06:41:31;;;;;;;;;;;13.70;53.50;;;;;;5073375;28;19927;-69
2023/07/19 06:43:58;;;;;;;;;;;13.70;54.10;;;;;;5074262;28;19909;-70
2023/07/19 06:46:25;;;;;;;;;;;13.70;54.10;;;;;;5074014;28;19916;-70
2023/07/19 06:48:51;;;;;;;;;;;13.60;54.00;;;;;;5070053;28;20282;-70
2023/07/19 06:51:18;;;;;;;;;;;13.60;54.00;;;;;;5033903;28;19928;-77
2023/07/19 06:53:45;;;;;;;;;;;13.60;54.70;;;;;;5062232;28;19921;-70
2023/07/19 06:56:12;;;;;;;;;;;13.60;54.70;;;;;;5072463;28;19963;-70
2023/07/19 06:58:38;;;;;;;;;;;13.60;55.10;;;;;;5073809;28;20446;-69
2023/07/19 07:01:05;;;;;;;;;;;13.50;55.70;;;;;;5073633;28;20393;-69
2023/07/19 07:03:34;;;;;;;;;;;13.50;55.30;;;;;;5061858;28;19967;-75
2023/07/19 07:06:01;;;;;;;;;;;13.50;55.50;;;;;;5053946;28;20339;-75
2023/07/19 07:08:28;;;;;;;;;;;13.50;56.00;;;;;;5062552;28;19967;-69
2023/07/19 07:10:55;;;;;;;;;;;13.50;55.30;;;;;;5071617;28;20401;-69
2023/07/19 07:13:21;;;;;;;;;;;13.40;56.00;;;;;;5064508;28;19958;-69
2023/07/19 07:15:50;;;;;;;;;;;13.40;55.50;;;;;;5053826;28;20331;-70
2023/07/19 07:18:17;;;;;;;;;;;13.30;55.50;;;;;;5053214;28;19924;-69
2023/07/19 07:20:43;;;;;;;;;;;13.40;55.10;;;;;;5053476;28;20561;-70
2023/07/19 07:23:10;;;;;;;;;;;13.30;55.30;;;;;;5051263;28;20542;-68
2023/07/19 07:25:37;;;;;;;;;;;13.40;55.20;;;;;;5050612;28;20002;-68
2023/07/19 07:28:04;;;;;;;;;;;13.40;54.90;;;;;;5051029;28;19913;-68
2023/07/19 07:30:31;;;;;;;;;;;13.30;55.60;;;;;;5050711;28;21058;-69
2023/07/19 07:32:58;;;;;;;;;;;13.30;55.40;;;;;;5050649;28;19909;-69
2023/07/19 07:35:25;;;;;;;;;;;13.30;55.30;;;;;;5050231;28;20042;-70
2023/07/19 07:37:51;;;;;;;;;;;13.30;56.00;;;;;;5065599;28;19922;-70
2023/07/19 07:40:18;;;;;;;;;;;13.30;56.50;;;;;;5070311;28;19912;-69
2023/07/19 07:42:45;;;;;;;;;;;13.30;56.60;;;;;;5068515;28;19924;-70
2023/07/19 07:45:12;;;;;;;;;;;13.30;56.40;;;;;;5070366;28;19959;-69
2023/07/19 07:47:39;;;;;;;;;;;13.30;56.20;;;;;;5070024;28;19916;-69
2023/07/19 07:50:08;;;;;;;;;;;13.30;56.50;;;;;;5070023;28;19924;-70
2023/07/19 07:52:38;;;;;;;;;;;13.30;56.50;;;;;;5070752;28;19927;-70
2023/07/19 07:55:06;;;;;;;;;;;13.20;57.30;;;;;;5070258;28;19913;-70
2023/07/19 07:57:33;;;;;;;;;;;13.20;57.10;;;;;;5070578;28;20014;-69
2023/07/19 08:00:05;;;;;;;;;;;13.20;57.20;;;;;;5069860;28;19947;-70
2023/07/19 08:02:32;;;;;;;;;;;13.20;57.40;;;;;;5069855;28;19916;-70
2023/07/19 08:05:00;;;;;;;;;;;13.10;58.00;;;;;;5070209;28;19909;-71
2023/07/19 08:07:27;;;;;;;;;;;13.20;57.80;;;;;;5069355;28;19970;-70
2023/07/19 08:09:53;;;;;;;;;;;13.10;57.70;;;;;;5068580;28;19916;-70
2023/07/19 08:12:20;;;;;;;;;;;13.20;57.80;;;;;;5068517;28;19947;-71
2023/07/19 08:14:47;;;;;;;;;;;13.10;58.00;;;;;;5070054;28;19916;-70
2023/07/19 08:17:15;;;;;;;;;;;13.10;57.90;;;;;;5069826;28;19908;-69
2023/07/19 08:19:41;;;;;;;;;;;13.10;58.00;;;;;;5070260;28;19919;-70
2023/07/19 08:22:15;;;;;;;;;;;13.10;58.10;;;;;;5069508;28;20373;-69
2023/07/19 08:24:42;;;;;;;;;;;13.10;58.00;;;;;;5040567;28;20378;-69
2023/07/19 08:27:08;;;;;;;;;;;13.10;58.00;;;;;;5067149;28;19920;-69
2023/07/19 08:29:35;;;;;;;;;;;13.10;58.00;;;;;;5069594;28;19942;-70
2023/07/19 08:32:06;;;;;;;;;;;13.10;58.00;;;;;;5066677;28;20488;-70
2023/07/19 08:34:33;;;;;;;;;;;13.10;58.00;;;;;;5071797;28;20417;-69
2023/07/19 08:37:00;;;;;;;;;;;13.10;58.20;;;;;;5069286;28;20003;-69
2023/07/19 08:39:29;;;;;;;;;;;13.10;58.40;;;;;;5085630;28;19916;-70
2023/07/19 08:41:56;;;;;;;;;;;13.10;58.60;;;;;;5054588;28;19917;-70
2023/07/19 08:44:23;;;;;;;;;;;13.00;59.20;;;;;;5072458;28;20015;-70
2023/07/19 08:46:50;;;;;;;;;;;13.00;59.70;;;;;;5068612;28;19912;-71
2023/07/19 08:49:17;;;;;;;;;;;12.90;59.90;;;;;;5069166;28;20374;-71
2023/07/19 08:51:44;;;;;;;;;;;13.00;59.70;;;;;;5061219;28;19920;-71
2023/07/19 08:54:11;;;;;;;;;;;12.90;59.90;;;;;;5071596;28;19916;-71
2023/07/19 08:56:38;;;;;;;;;;;12.90;60.20;;;;;;5089441;28;19919;-72
2023/07/19 08:59:08;;;;;;;;;;;12.80;60.30;;;;;;5060302;28;19959;-75
2023/07/19 09:01:35;;;;;;;;;;;12.80;60.40;;;;;;5073522;28;19916;-75
2023/07/19 09:04:07;;;;;;;;;;;12.80;60.40;;;;;;5088771;28;19916;-70
2023/07/19 09:06:34;;;;;;;;;;;12.70;60.60;;;;;;5089792;28;19920;-71
2023/07/19 09:09:01;;;;;;;;;;;12.70;60.80;;;;;;5079974;28;19916;-77
2023/07/19 09:11:28;;;;;;;;;;;12.70;60.90;;;;;;5050702;28;20682;-75
2023/07/19 09:13:55;;;;;;;;;;;12.70;61.30;;;;;;5069410;28;19938;-72
2023/07/19 09:16:28;;;;;;;;;;;12.60;61.70;;;;;;5085330;28;19955;-75
2023/07/19 09:18:56;;;;;;;;;;;12.50;62.70;;;;;;5064071;28;19916;-74
2023/07/19 09:21:42;;;;;;;;;;;12.50;62.90;;;;;;5050482;28;19927;-76
2023/07/19 09:24:09;;;;;;;;;;;12.40;63.40;;;;;;5068865;28;20390;-76
2023/07/19 10:53:12;;;;;;;;;;;11.40;70.70;;;;;;5100472;28;20265;-77
2023/07/19 10:55:38;;;;;;;;;;;11.40;70.60;;;;;;5090112;28;19916;-73
2023/07/19 10:58:06;;;;;;;;;;;11.30;70.60;;;;;;5110848;28;19912;-73
2023/07/19 11:00:34;;;;;;;;;;;11.30;70.80;;;;;;5110880;28;19915;-73
2023/07/19 11:03:01;;;;;;;;;;;11.20;71.00;;;;;;5111056;28;19912;-73
2023/07/19 11:05:28;;;;;;;;;;;11.20;71.40;;;;;;5108800;28;20646;-76
2023/07/19 11:07:55;;;;;;;;;;;11.20;71.60;;;;;;5093791;28;20377;-70
2023/07/19 11:10:21;;;;;;;;;;;11.20;72.30;;;;;;5093363;28;19915;-69
2023/07/19 11:12:48;;;;;;;;;;;11.20;72.50;;;;;;5109521;28;19924;-70
2023/07/19 11:15:15;;;;;;;;;;;11.20;72.80;;;;;;5106329;28;20328;-74
2023/07/19 11:17:42;;;;;;;;;;;11.20;72.60;;;;;;5109963;28;19919;-74
2023/07/19 11:20:09;;;;;;;;;;;11.20;72.30;;;;;;5110353;28;19922;-75
2023/07/19 11:22:36;;;;;;;;;;;11.10;72.40;;;;;;5109124;28;19911;-75
2023/07/19 11:25:08;;;;;;;;;;;11.20;71.90;;;;;;5110666;28;20369;-71
2023/07/19 11:27:35;;;;;;;;;;;11.20;71.20;;;;;;5106604;28;19941;-76
2023/07/19 11:30:02;;;;;;;;;;;11.20;69.90;;;;;;5091697;28;19965;-76
2023/07/19 11:32:28;;;;;;;;;;;11.20;69.50;;;;;;5110436;28;20421;-77
2023/07/19 11:34:56;;;;;;;;;;;11.20;68.90;;;;;;5109777;28;19916;-72
2023/07/19 11:37:33;;;;;;;;;;;11.20;68.80;;;;;;5092550;28;19912;-74
2023/07/19 11:40:04;;;;;;;;;;;11.20;68.20;;;;;;5090303;28;19918;-71
2023/07/19 11:42:47;;;;;;;;;;;11.10;67.90;;;;;;5110029;28;20389;-76
2023/07/19 11:45:26;;;;;;;;;;;11.10;68.20;;;;;;5109204;28;19916;-71
2023/07/19 11:47:56;;;;;;;;;;;11.10;68.20;;;;;;5106933;28;19915;-69
2023/07/19 11:50:23;;;;;;;;;;;11.10;68.40;;;;;;5109482;28;20414;-71
2023/07/19 11:52:56;;;;;;;;;;;11.00;68.90;;;;;;5110601;28;19976;-72
2023/07/19 11:55:23;;;;;;;;;;;10.90;69.70;;;;;;5110644;28;19922;-71
2023/07/19 11:57:51;;;;;;;;;;;10.90;69.60;;;;;;5110256;28;20334;-71
2023/07/19 12:00:18;;;;;;;;;;;10.80;70.00;;;;;;5109969;28;19912;-70
2023/07/19 12:02:46;;;;;;;;;;;10.80;70.10;;;;;;5075177;28;19972;-71
2023/07/19 12:05:13;;;;;;;;;;;10.70;70.30;;;;;;5092024;28;19908;-73
2023/07/19 12:07:40;;;;;;;;;;;10.70;70.50;;;;;;5111017;27;19982;-71
2023/07/19 12:10:07;;;;;;;;;;;10.60;70.80;;;;;;5110555;28;19908;-70
2023/07/19 12:12:34;;;;;;;;;;;10.70;71.00;;;;;;5108345;28;19920;-72
2023/07/19 12:15:04;;;;;;;;;;;10.70;70.70;;;;;;5108742;28;20434;-73
2023/07/19 12:17:34;;;;;;;;;;;10.70;70.50;;;;;;5108400;28;19915;-73
2023/07/19 12:20:01;;;;;;;;;;;10.70;70.80;;;;;;5091423;28;19926;-73
2023/07/19 12:22:27;;;;;;;;;;;10.70;70.80;;;;;;5073708;28;20327;-72
2023/07/19 12:24:54;;;;;;;;;;;10.60;71.00;;;;;;5108953;28;20330;-73
2023/07/19 12:27:21;;;;;;;;;;;10.50;71.10;;;;;;5110310;28;19916;-74
2023/07/19 12:29:48;;;;;;;;;;;10.50;70.80;;;;;;5109700;28;20607;-76
2023/07/19 12:32:15;;;;;;;;;;;10.50;70.90;;;;;;5108020;28;21426;-73
2023/07/19 12:34:43;;;;;;;;;;;10.50;71.00;;;;;;5109599;28;19916;-74
2023/07/19 12:37:09;;;;;;;;;;;10.50;71.00;;;;;;5090870;28;19916;-73
2023/07/19 12:39:36;;;;;;;;;;;10.50;70.80;;;;;;5108045;28;19912;-74
2023/07/19 12:42:03;;;;;;;;;;;10.50;70.80;;;;;;5107915;28;19911;-73
2023/07/19 12:44:30;;;;;;;;;;;10.40;70.60;;;;;;5106654;28;19918;-75
2023/07/19 12:46:57;;;;;;;;;;;10.40;70.40;;;;;;5108344;28;19919;-74
2023/07/19 12:49:23;;;;;;;;;;;10.40;70.60;;;;;;5108674;28;20341;-74
2023/07/19 12:51:50;;;;;;;;;;;10.40;70.90;;;;;;5108835;28;20301;-71
2023/07/19 12:54:17;;;;;;;;;;;10.30;71.20;;;;;;5090965;28;19943;-71
2023/07/19 12:56:44;;;;;;;;;;;10.20;71.80;;;;;;5106532;28;20346;-72
2023/07/19 12:59:11;;;;;;;;;;;10.20;71.80;;;;;;5108109;28;20285;-71
2023/07/19 13:01:37;;;;;;;;;;;10.20;71.70;;;;;;5109367;28;20384;-72
2023/07/19 13:04:05;;;;;;;;;;;10.20;71.90;;;;;;5091800;28;19995;-71
2023/07/19 13:06:33;;;;;;;;;;;10.20;72.00;;;;;;5108004;28;19920;-72
2023/07/19 13:09:02;;;;;;;;;;;10.20;71.80;;;;;;5094454;28;20321;-71
2023/07/19 13:11:28;;;;;;;;;;;10.10;71.90;;;;;;5110378;28;19924;-71
2023/07/19 13:13:55;;;;;;;;;;;10.00;72.20;;;;;;5113511;28;19926;-71
2023/07/19 13:16:23;;;;;;;;;;;10.00;72.10;;;;;;5105370;28;20003;-71
2023/07/19 13:18:50;;;;;;;;;;;10.00;71.80;;;;;;5111170;28;19920;-71
2023/07/19 13:21:16;;;;;;;;;;;10.00;72.00;;;;;;5111272;28;19912;-71
2023/07/19 13:23:43;;;;;;;;;;;10.10;71.80;;;;;;5127452;27;19919;-71
2023/07/19 13:26:10;;;;;;;;;;;10.10;71.70;;;;;;5112117;28;19919;-71
2023/07/19 13:28:37;;;;;;;;;;;10.10;71.90;;;;;;5110954;28;19923;-72
2023/07/19 13:31:04;;;;;;;;;;;10.10;72.00;;;;;;5112775;28;20327;-70
2023/07/19 13:33:30;;;;;;;;;;;10.10;72.30;;;;;;5110416;28;19919;-70
2023/07/19 13:35:57;;;;;;;;;;;10.10;72.40;;;;;;5079762;27;19966;-69
2023/07/19 13:38:24;;;;;;;;;;;10.10;72.50;;;;;;5112707;28;19916;-68
2023/07/19 13:40:51;;;;;;;;;;;10.00;72.80;;;;;;5127878;27;19961;-71
2023/07/19 13:43:19;;;;;;;;;;;10.10;73.00;;;;;;5115533;27;19912;-71
2023/07/19 13:45:46;;;;;;;;;;;10.00;73.10;;;;;;5115143;28;19911;-70
2023/07/19 13:48:13;;;;;;;;;;;10.00;73.40;;;;;;5118263;27;20373;-70
2023/07/19 13:50:40;;;;;;;;;;;10.00;73.40;;;;;;5136187;27;19963;-70
2023/07/19 13:53:06;;;;;;;;;;;9.90;73.50;;;;;;5132784;27;19926;-71
2023/07/19 13:55:33;;;;;;;;;;;9.80;73.50;;;;;;5114699;28;19958;-71
2023/07/19 13:58:00;;;;;;;;;;;9.80;73.60;;;;;;5112307;28;19946;-71
2023/07/19 14:00:27;;;;;;;;;;;9.80;73.40;;;;;;5115098;28;19912;-70
2023/07/19 14:02:54;;;;;;;;;;;9.70;73.60;;;;;;5097369;28;19919;-70
2023/07/19 14:05:21;;;;;;;;;;;9.70;74.00;;;;;;5115881;28;19908;-71
2023/07/19 14:07:47;;;;;;;;;;;9.70;73.90;;;;;;5114876;28;19930;-70
2023/07/19 14:10:14;;;;;;;;;;;9.70;74.20;;;;;;5115232;28;20334;-71
2023/07/19 14:12:41;;;;;;;;;;;9.70;74.40;;;;;;5115334;28;19959;-70
2023/07/19 14:15:08;;;;;;;;;;;9.70;74.20;;;;;;5097039;28;19908;-71
2023/07/19 14:17:35;;;;;;;;;;;9.70;74.10;;;;;;5114377;28;19960;-70
2023/07/19 14:20:02;;;;;;;;;;;9.70;74.20;;;;;;5114426;28;20320;-71
2023/07/19 14:22:28;;;;;;;;;;;9.70;73.80;;;;;;5114746;28;20306;-71
2023/07/19 14:24:55;;;;;;;;;;;9.60;73.80;;;;;;5111985;28;20323;-70
2023/07/19 14:27:21;;;;;;;;;;;9.60;73.60;;;;;;5114420;28;19912;-71
2023/07/19 14:29:48;;;;;;;;;;;9.60;73.50;;;;;;5114818;28;19912;-71
2023/07/19 14:32:14;;;;;;;;;;;9.50;73.80;;;;;;5114794;28;19919;-70
2023/07/19 14:34:41;;;;;;;;;;;9.50;73.50;;;;;;5114517;28;20370;-71
2023/07/19 14:37:08;;;;;;;;;;;9.50;73.60;;;;;;5114881;28;20066;-71
2023/07/19 14:39:34;;;;;;;;;;;9.50;73.50;;;;;;5096780;28;19943;-71
2023/07/19 14:42:01;;;;;;;;;;;9.50;73.60;;;;;;5114743;28;20301;-71
2023/07/19 14:44:27;;;;;;;;;;;9.50;73.60;;;;;;5096339;28;19937;-71
2023/07/19 14:46:54;;;;;;;;;;;9.50;73.40;;;;;;5114252;28;19915;-70
2023/07/19 14:49:20;;;;;;;;;;;9.40;73.40;;;;;;5113976;28;20006;-70
2023/07/19 14:51:47;;;;;;;;;;;9.50;73.40;;;;;;5114421;28;20408;-70
2023/07/19 14:54:14;;;;;;;;;;;9.40;73.60;;;;;;5095511;28;19965;-71
2023/07/19 14:56:40;;;;;;;;;;;9.40;73.20;;;;;;5113229;28;19912;-70
2023/07/19 14:59:07;;;;;;;;;;;9.40;73.20;;;;;;5113634;28;20038;-71
2023/07/19 15:01:34;;;;;;;;;;;9.30;73.40;;;;;;5111911;28;19912;-71
2023/07/19 15:04:01;;;;;;;;;;;9.30;73.30;;;;;;5113549;28;19963;-70
2023/07/19 15:06:29;;;;;;;;;;;9.30;73.60;;;;;;5113330;28;19919;-70
2023/07/19 15:08:57;;;;;;;;;;;9.30;73.60;;;;;;5114124;28;20284;-71
2023/07/19 15:11:24;;;;;;;;;;;9.20;73.40;;;;;;5114546;28;19916;-71
2023/07/19 15:13:51;;;;;;;;;;;9.20;73.40;;;;;;5096116;28;19923;-71
2023/07/19 15:16:18;;;;;;;;;;;9.20;73.10;;;;;;5112639;28;19912;-71
2023/07/19 15:18:45;;;;;;;;;;;9.20;73.50;;;;;;5110885;28;19919;-71
2023/07/19 15:21:12;;;;;;;;;;;9.20;73.60;;;;;;5114098;28;19939;-71
2023/07/19 15:23:39;;;;;;;;;;;9.20;73.60;;;;;;5113438;28;19950;-71
2023/07/19 15:26:06;;;;;;;;;;;9.20;73.50;;;;;;5113325;28;19995;-71
2023/07/19 15:28:32;;;;;;;;;;;9.20;73.40;;;;;;5110935;28;20041;-70
2023/07/19 15:31:00;;;;;;;;;;;9.10;73.40;;;;;;5111350;28;20444;-71
2023/07/19 15:33:26;;;;;;;;;;;9.10;73.40;;;;;;5111362;28;20109;-71
2023/07/19 15:35:53;;;;;;;;;;;9.10;73.60;;;;;;5112348;28;19908;-72
2023/07/19 15:38:21;;;;;;;;;;;9.10;73.60;;;;;;5112172;28;19914;-71
2023/07/19 15:40:47;;;;;;;;;;;9.10;73.50;;;;;;5127231;27;20022;-71
2023/07/19 15:43:14;;;;;;;;;;;9.00;74.30;;;;;;5111117;28;19919;-71
2023/07/19 15:45:41;;;;;;;;;;;9.10;74.40;;;;;;5113980;28;19908;-71